createdAt,value
2023-05-17T00:03:21.812Z,5.90
2023-05-17T00:07:24.612Z,5.86
2023-05-17T00:11:27.338Z,5.91
2023-05-17T00:15:31.482Z,5.88
2023-05-17T00:19:34.177Z,5.88
2023-05-17T00:23:36.876Z,5.41
2023-05-17T00:33:02.389Z,5.47
2023-05-17T00:37:04.988Z,5.22
2023-05-17T00:41:07.623Z,5.34
2023-05-17T00:45:11.110Z,5.38
2023-05-17T00:49:14.969Z,5.07
2023-05-17T00:53:17.610Z,5.24
2023-05-17T00:57:20.469Z,5.26
2023-05-17T01:01:23.092Z,5.00
2023-05-17T01:05:28.727Z,4.98
2023-05-17T01:09:31.990Z,4.96
2023-05-17T01:13:41.069Z,4.36
2023-05-17T01:17:52.153Z,4.75
2023-05-17T01:22:06.008Z,4.77
2023-05-17T01:26:12.129Z,4.83
2023-05-17T01:30:18.124Z,4.65
2023-05-17T01:34:26.449Z,4.71
2023-05-17T01:38:29.234Z,4.40
2023-05-17T01:42:33.350Z,4.61
2023-05-17T01:46:40.496Z,4.48
2023-05-17T01:50:44.037Z,4.30
2023-05-17T01:54:49.417Z,4.44
2023-05-17T01:58:53.624Z,4.32
2023-05-17T02:02:57.689Z,4.30
2023-05-17T02:07:00.475Z,4.23
2023-05-17T02:11:03.129Z,4.52
2023-05-17T02:15:07.804Z,4.94
2023-05-17T02:19:13.173Z,5.56
2023-05-17T02:23:16.178Z,5.83
2023-05-17T02:27:18.810Z,5.75
2023-05-17T02:31:21.430Z,5.73
2023-05-17T02:35:25.569Z,5.85
2023-05-17T02:39:28.248Z,6.07
2023-05-17T02:43:31.092Z,6.11
2023-05-17T02:47:33.800Z,6.04
2023-05-17T02:51:37.911Z,6.02
2023-05-17T02:55:40.639Z,6.00
2023-05-17T02:59:43.404Z,5.99
2023-05-17T03:03:46.183Z,6.09
2023-05-17T03:07:50.335Z,6.20
2023-05-17T03:11:52.871Z,6.22
2023-05-17T03:15:55.496Z,6.23
2023-05-17T03:19:58.171Z,6.24
2023-05-17T03:24:02.249Z,6.26
2023-05-17T03:28:05.231Z,6.36
2023-05-17T03:32:08.398Z,6.36
2023-05-17T03:36:11.136Z,6.32
2023-05-17T03:40:15.205Z,6.37
2023-05-17T03:44:17.889Z,6.27
2023-05-17T03:48:20.577Z,6.23
2023-05-17T03:52:23.305Z,6.18
2023-05-17T03:56:27.611Z,6.16
2023-05-17T04:00:30.356Z,6.16
2023-05-17T04:04:33.115Z,6.14
2023-05-17T04:08:36.522Z,6.02
2023-05-17T04:12:40.546Z,5.77
2023-05-17T04:16:43.214Z,5.63
2023-05-17T04:20:45.973Z,5.47
2023-05-17T04:24:48.677Z,5.49
2023-05-17T04:28:52.684Z,5.38
2023-05-17T04:32:55.790Z,5.51
2023-05-17T04:36:58.537Z,5.57
2023-05-17T04:41:05.108Z,5.72
2023-05-17T04:45:10.600Z,5.81
2023-05-17T04:49:13.299Z,5.86
2023-05-17T04:53:16.718Z,6.57
2023-05-17T04:57:19.398Z,6.65
2023-05-17T05:01:23.416Z,6.74
2023-05-17T05:05:26.375Z,6.89
2023-05-17T05:09:29.282Z,6.96
2023-05-17T05:13:33.088Z,8.27
2023-05-17T05:17:36.979Z,10.82
2023-05-17T05:21:39.671Z,11.90
2023-05-17T05:25:42.351Z,13.54
2023-05-17T05:29:45.007Z,13.77
2023-05-17T05:33:49.976Z,12.76
2023-05-17T05:37:52.663Z,12.49
2023-05-17T05:41:55.346Z,11.87
2023-05-17T05:45:57.992Z,12.94
2023-05-17T05:50:02.071Z,11.50
2023-05-17T05:54:04.813Z,13.03
2023-05-17T05:58:07.499Z,14.15
2023-05-17T06:02:10.473Z,15.13
2023-05-17T06:06:16.615Z,13.67
2023-05-17T06:10:19.574Z,15.19
2023-05-17T06:14:22.408Z,16.79
2023-05-17T06:18:25.169Z,17.56
2023-05-17T06:22:29.486Z,15.81
2023-05-17T06:26:32.497Z,12.85
2023-05-17T06:30:35.155Z,11.17
2023-05-17T06:34:39.971Z,10.73
2023-05-17T06:38:44.003Z,10.65
2023-05-17T06:42:46.676Z,11.62
2023-05-17T06:46:49.550Z,10.97
2023-05-17T06:50:52.181Z,11.79
2023-05-17T06:54:56.222Z,11.06
2023-05-17T06:58:59.498Z,10.19
2023-05-17T07:03:02.294Z,10.67
2023-05-17T07:07:05.263Z,10.05
2023-05-17T07:11:09.409Z,9.60
2023-05-17T07:15:12.719Z,9.98
2023-05-17T07:19:15.446Z,10.21
2023-05-17T07:23:18.246Z,10.13
2023-05-17T07:27:22.278Z,11.39
2023-05-17T07:31:24.964Z,11.01
2023-05-17T07:35:27.846Z,11.47
2023-05-17T07:39:30.754Z,10.67
2023-05-17T07:43:34.808Z,10.45
2023-05-17T07:47:37.630Z,10.83
2023-05-17T07:51:40.469Z,11.36
2023-05-17T07:55:52.565Z,11.32
2023-05-17T07:59:56.603Z,11.17
2023-05-17T08:03:59.293Z,10.57
2023-05-17T08:08:02.204Z,10.67
2023-05-17T08:12:05.369Z,10.25
2023-05-17T08:16:14.053Z,10.28
2023-05-17T08:20:17.826Z,10.45
2023-05-17T08:24:20.808Z,10.68
2023-05-17T08:28:23.469Z,10.67
2023-05-17T08:32:28.131Z,10.77
2023-05-17T08:36:31.814Z,10.80
2023-05-17T08:40:34.567Z,10.85
2023-05-17T08:44:38.732Z,10.72
2023-05-17T08:48:44.054Z,11.22
2023-05-17T08:52:47.358Z,11.80
2023-05-17T08:56:52.635Z,12.11
2023-05-17T09:00:56.160Z,12.15
2023-05-17T09:05:01.043Z,12.03
2023-05-17T09:09:04.030Z,11.94
2023-05-17T09:13:06.684Z,13.18
2023-05-17T09:17:09.387Z,12.53
2023-05-17T09:21:14.529Z,12.09
2023-05-17T09:25:20.617Z,11.68
2023-05-17T09:29:23.277Z,11.19
2023-05-17T09:33:26.282Z,10.96
2023-05-17T09:37:30.915Z,11.37
2023-05-17T09:41:34.728Z,11.42
2023-05-17T09:45:37.700Z,11.52
2023-05-17T09:49:40.357Z,11.75
2023-05-17T09:53:44.537Z,11.66
2023-05-17T09:57:48.774Z,11.88
2023-05-17T10:01:51.570Z,11.83
2023-05-17T10:05:54.648Z,11.81
2023-05-17T10:09:59.497Z,12.04
2023-05-17T10:14:11.250Z,12.24
2023-05-17T10:18:14.462Z,12.21
2023-05-17T10:22:23.333Z,12.17
2023-05-17T10:26:28.522Z,12.20
2023-05-17T10:30:31.242Z,12.69
2023-05-17T10:34:35.261Z,12.63
2023-05-17T10:38:42.655Z,13.05
2023-05-17T10:42:51.911Z,13.16
2023-05-17T10:46:56.068Z,13.03
2023-05-17T10:51:01.779Z,12.87
2023-05-17T10:55:05.139Z,12.79
2023-05-17T10:59:21.675Z,13.29
2023-05-17T11:03:29.325Z,12.72
2023-05-17T11:07:34.856Z,13.33
2023-05-17T11:11:37.535Z,13.12
2023-05-17T11:15:41.834Z,14.16
2023-05-17T11:19:56.613Z,14.12
2023-05-17T11:24:03.788Z,13.74
2023-05-17T11:28:11.184Z,13.62
2023-05-17T11:32:15.330Z,13.74
2023-05-17T11:36:20.545Z,13.07
2023-05-17T11:40:28.626Z,13.26
2023-05-17T11:44:33.167Z,13.28
2023-05-17T11:48:37.867Z,14.06
2023-05-17T11:52:41.957Z,14.26
2023-05-17T11:56:44.719Z,14.06
2023-05-17T12:00:47.498Z,14.21
2023-05-17T12:04:51.629Z,13.76
2023-05-17T12:08:54.413Z,13.46
2023-05-17T12:12:57.873Z,13.67
2023-05-17T12:17:01.977Z,13.84
2023-05-17T12:21:06.889Z,14.16
2023-05-17T12:25:20.316Z,14.66
2023-05-17T12:29:24.924Z,14.16
2023-05-17T12:33:27.830Z,14.52
2023-05-17T12:37:32.145Z,14.16
2023-05-17T12:41:34.912Z,13.82
2023-05-17T12:45:37.738Z,14.25
2023-05-17T12:49:41.335Z,14.66
2023-05-17T12:53:46.508Z,14.92
2023-05-17T12:57:52.665Z,14.21
2023-05-17T13:01:56.621Z,14.35
2023-05-17T13:06:04.315Z,15.39
2023-05-17T13:10:21.247Z,16.00
2023-05-17T13:14:38.059Z,16.08
2023-05-17T13:18:51.525Z,15.99
2023-05-17T13:22:54.855Z,15.79
2023-05-17T13:26:58.904Z,15.52
2023-05-17T13:31:01.625Z,16.41
2023-05-17T13:35:04.757Z,16.22
2023-05-17T13:39:07.447Z,15.10
2023-05-17T13:43:11.502Z,14.79
2023-05-17T13:47:14.260Z,15.06
2023-05-17T13:51:17.028Z,15.69
2023-05-17T13:55:19.724Z,15.65
2023-05-17T13:59:24.149Z,15.66
2023-05-17T14:03:27.044Z,15.67
2023-05-17T14:07:30.092Z,15.85
2023-05-17T14:11:32.868Z,15.55
2023-05-17T14:15:38.503Z,15.10
2023-05-17T14:19:41.223Z,15.84
2023-05-17T14:23:43.899Z,15.64
2023-05-17T14:27:46.833Z,14.96
2023-05-17T14:31:50.717Z,16.00
2023-05-17T14:35:53.401Z,15.60
2023-05-17T14:40:05.820Z,16.50
2023-05-17T14:44:08.951Z,16.67
2023-05-17T14:48:13.205Z,17.20
2023-05-17T14:52:16.135Z,17.08
2023-05-17T14:56:19.025Z,15.29
2023-05-17T15:00:23.420Z,15.80
2023-05-17T15:04:27.562Z,16.25
2023-05-17T15:08:30.563Z,16.13
2023-05-17T15:12:33.309Z,16.09
2023-05-17T15:16:35.904Z,16.14
2023-05-17T15:20:40.087Z,16.36
2023-05-17T15:24:42.765Z,15.82
2023-05-17T15:28:45.455Z,15.84
2023-05-17T15:32:48.158Z,16.00
2023-05-17T15:36:52.200Z,15.73
2023-05-17T15:41:02.609Z,15.25
2023-05-17T15:45:05.978Z,15.68
2023-05-17T15:49:08.766Z,15.62
2023-05-17T15:53:13.165Z,15.81
2023-05-17T15:57:16.046Z,15.79
2023-05-17T16:01:18.842Z,15.29
2023-05-17T16:05:21.845Z,14.87
2023-05-17T16:09:26.204Z,15.03
2023-05-17T16:13:29.147Z,15.24
2023-05-17T16:17:31.963Z,15.00
2023-05-17T16:21:35.565Z,15.12
2023-05-17T16:25:39.976Z,15.10
2023-05-17T16:29:42.885Z,15.02
2023-05-17T16:33:45.601Z,14.72
2023-05-17T16:37:49.947Z,15.00
2023-05-17T16:41:55.655Z,14.92
2023-05-17T16:45:58.338Z,14.84
2023-05-17T16:50:01.601Z,14.70
2023-05-17T16:54:04.466Z,14.86
2023-05-17T16:58:08.798Z,14.63
2023-05-17T17:02:12.852Z,14.76
2023-05-17T17:06:15.581Z,14.75
2023-05-17T17:10:19.999Z,14.25
2023-05-17T17:14:24.326Z,14.02
2023-05-17T17:18:26.957Z,14.04
2023-05-17T17:22:29.622Z,13.55
2023-05-17T17:26:32.344Z,13.84
2023-05-17T17:30:36.349Z,13.50
2023-05-17T17:34:38.997Z,13.27
2023-05-17T17:38:41.750Z,12.75
2023-05-17T17:42:44.491Z,12.77
2023-05-17T17:46:48.675Z,13.26
2023-05-17T17:50:51.371Z,12.86
2023-05-17T17:54:54.074Z,12.34
2023-05-17T17:58:57.179Z,12.31
2023-05-17T18:03:01.338Z,12.02
2023-05-17T18:07:04.077Z,11.98
2023-05-17T18:11:06.772Z,12.08
2023-05-17T18:15:10.795Z,11.94
2023-05-17T18:19:15.017Z,12.32
2023-05-17T18:23:17.763Z,12.02
2023-05-17T18:27:20.504Z,11.56
2023-05-17T18:31:23.227Z,11.29
2023-05-17T18:35:27.399Z,11.57
2023-05-17T18:39:30.282Z,11.01
2023-05-17T18:43:33.317Z,11.27
2023-05-17T18:47:36.446Z,11.13
2023-05-17T18:51:40.511Z,10.99
2023-05-17T18:55:43.163Z,10.80
2023-05-17T18:59:45.816Z,10.68
2023-05-17T19:03:51.394Z,10.12
2023-05-17T19:07:55.760Z,10.26
2023-05-17T19:11:58.465Z,10.18
2023-05-17T19:16:02.962Z,9.57
2023-05-17T19:20:06.557Z,9.94
2023-05-17T19:24:10.894Z,9.75
2023-05-17T19:28:13.574Z,9.61
2023-05-17T19:32:16.192Z,8.96
2023-05-17T19:36:18.919Z,8.73
2023-05-17T19:40:23.164Z,8.85
2023-05-17T19:44:25.957Z,8.95
2023-05-17T19:48:28.594Z,8.57
2023-05-17T19:52:31.269Z,8.88
2023-05-17T19:56:35.300Z,8.16
2023-05-17T20:00:38.572Z,8.27
2023-05-17T20:04:41.636Z,8.40
2023-05-17T20:08:44.391Z,7.91
2023-05-17T20:12:48.452Z,8.13
2023-05-17T20:16:51.284Z,8.29
2023-05-17T20:20:55.806Z,8.09
2023-05-17T20:24:58.617Z,7.98
2023-05-17T20:29:02.730Z,7.82
2023-05-17T20:33:06.883Z,7.61
2023-05-17T20:37:11.253Z,7.56
2023-05-17T20:41:14.970Z,7.53
2023-05-17T20:45:18.960Z,7.43
2023-05-17T20:49:21.762Z,7.30
2023-05-17T20:53:24.642Z,6.95
2023-05-17T20:57:27.416Z,7.21
2023-05-17T21:01:31.620Z,7.34
2023-05-17T21:05:36.202Z,7.07
2023-05-17T21:09:39.235Z,6.97
2023-05-17T21:13:41.905Z,6.97
2023-05-17T21:17:46.101Z,7.20
2023-05-17T21:21:48.830Z,7.19
2023-05-17T21:25:51.488Z,7.11
2023-05-17T21:29:54.411Z,7.14
2023-05-17T21:33:58.634Z,7.14
2023-05-17T21:38:01.306Z,6.52
2023-05-17T21:42:04.289Z,7.06
2023-05-17T21:46:07.100Z,6.90
2023-05-17T21:50:12.504Z,6.90
2023-05-17T21:54:15.175Z,6.86
2023-05-17T21:58:19.452Z,6.84
2023-05-17T22:02:22.125Z,7.12
2023-05-17T22:06:27.566Z,7.04
2023-05-17T22:10:30.522Z,6.81
2023-05-17T22:14:35.119Z,6.89
2023-05-17T22:18:38.233Z,6.70
2023-05-17T22:22:42.374Z,6.74
2023-05-17T22:26:45.136Z,6.94
2023-05-17T22:30:48.661Z,7.02
2023-05-17T22:34:52.862Z,6.98
2023-05-17T22:38:57.921Z,6.78
2023-05-17T22:43:01.389Z,6.60
2023-05-17T22:47:06.167Z,6.50
2023-05-17T22:51:08.972Z,6.53
2023-05-17T22:55:13.130Z,6.72
2023-05-17T22:59:15.962Z,6.83
2023-05-17T23:03:18.745Z,6.60
2023-05-17T23:07:21.870Z,6.44
2023-05-17T23:11:25.920Z,6.49
2023-05-17T23:15:29.691Z,6.40
2023-05-17T23:19:33.939Z,6.32
2023-05-17T23:23:37.964Z,6.39
2023-05-17T23:27:44.688Z,6.48
2023-05-17T23:31:48.731Z,6.59
2023-05-17T23:35:53.495Z,6.47
2023-05-17T23:39:56.539Z,6.26
2023-05-17T23:44:00.721Z,6.46
2023-05-17T23:48:03.339Z,6.30
2023-05-17T23:52:11.111Z,6.15
2023-05-17T23:56:13.773Z,6.27
